Time;durP1;ratioP1;P1;durP2;ratioP2;P2;SDS_P1;SDS_P2;PMS_P1;PMS_P2;Temp;Humidity;BMP_temperature;BMP_pressure;BME280_temperature;BME280_humidity;BME280_pressure;Samples;Min_cycle;Max_cycle;Signal;HPM_P1;HPM_P2
2022/04/05 00:01:55;;;;;;;6.67;2.87;;;;;;;5.54;97.13;99472.25;6072914;28;20035;-70
2022/04/05 00:04:50;;;;;;;6.80;3.03;;;;;;;5.59;96.48;99480.53;6073327;28;20033;-69
2022/04/05 00:07:46;;;;;;;8.10;3.30;;;;;;;5.57;96.41;99466.66;6073338;28;20147;-73
2022/04/05 00:10:41;;;;;;;9.10;4.10;;;;;;;5.56;96.79;99458.94;6071785;28;20034;-67
2022/04/05 00:13:38;;;;;;;6.60;2.80;;;;;;;5.59;96.68;99464.75;6073292;28;20268;-69
2022/04/05 00:16:33;;;;;;;9.13;3.92;;;;;;;5.54;96.66;99451.22;6073548;28;20040;-68
2022/04/05 00:19:29;;;;;;;8.70;4.00;;;;;;;5.55;96.92;99457.28;6072862;28;20026;-69
2022/04/05 00:22:24;;;;;;;9.00;4.32;;;;;;;5.58;96.93;99463.06;6070200;28;20026;-70
2022/04/05 00:25:20;;;;;;;11.53;5.13;;;;;;;5.57;97.41;99468.50;6072793;28;20041;-72
2022/04/05 00:28:15;;;;;;;10.67;4.53;;;;;;;5.59;97.43;99462.13;6073031;28;20495;-70
2022/04/05 00:31:10;;;;;;;11.77;4.90;;;;;;;5.58;97.54;99462.25;6072636;28;20275;-71
2022/04/05 00:34:06;;;;;;;11.37;5.33;;;;;;;5.58;97.15;99457.81;6080422;28;20813;-70
2022/04/05 00:37:01;;;;;;;11.93;4.83;;;;;;;5.62;97.31;99464.47;6081511;28;20041;-68
2022/04/05 00:39:56;;;;;;;11.55;4.72;;;;;;;5.65;97.26;99458.91;6082742;28;20625;-71
2022/04/05 00:42:52;;;;;;;11.48;5.00;;;;;;;5.63;97.95;99462.63;6080517;28;20762;-71
2022/04/05 00:45:47;;;;;;;11.40;4.53;;;;;;;5.64;97.98;99461.66;6081063;28;20073;-71
2022/04/05 00:48:52;;;;;;;11.97;5.30;;;;;;;5.60;97.63;99450.59;6080682;28;20037;-72
2022/04/05 00:51:47;;;;;;;10.82;4.68;;;;;;;5.59;98.00;99451.59;6080097;28;20079;-70
2022/04/05 00:54:45;;;;;;;11.00;5.40;;;;;;;5.62;98.30;99450.47;6080295;28;20484;-71
2022/04/05 00:57:41;;;;;;;9.50;4.68;;;;;;;5.64;98.41;99436.22;6081249;28;20496;-71
2022/04/05 01:00:39;;;;;;;10.45;4.65;;;;;;;5.59;97.62;99448.97;6079848;28;20041;-69
2022/04/05 01:03:36;;;;;;;9.15;4.80;;;;;;;5.59;98.48;99448.97;6080645;28;20091;-72
2022/04/05 01:06:35;;;;;;;10.63;3.95;;;;;;;5.61;97.67;99447.00;6079580;28;20447;-69
2022/04/05 01:09:30;;;;;;;8.88;4.07;;;;;;;5.59;97.75;99442.88;6079208;28;20439;-68
2022/04/05 01:12:25;;;;;;;9.90;4.22;;;;;;;5.62;98.43;99453.09;6079089;28;20041;-70
2022/04/05 01:15:21;;;;;;;8.70;4.07;;;;;;;5.60;98.01;99457.69;6080576;28;20041;-71
2022/04/05 01:18:17;;;;;;;7.93;3.90;;;;;;;5.62;97.55;99453.94;6080490;28;20033;-70
2022/04/05 01:21:14;;;;;;;12.50;3.58;;;;;;;5.55;98.18;99459.91;6078718;28;20292;-70
2022/04/05 01:24:13;;;;;;;7.78;3.42;;;;;;;5.56;98.22;99465.03;6080276;28;20069;-72
2022/04/05 01:27:16;;;;;;;6.75;3.53;;;;;;;5.53;97.86;99457.44;6081035;28;20430;-70
2022/04/05 01:30:11;;;;;;;8.85;3.10;;;;;;;5.50;98.01;99449.84;6079327;28;20469;-70
2022/04/05 01:33:07;;;;;;;5.72;2.70;;;;;;;5.50;97.67;99449.84;6080588;28;20069;-72
2022/04/05 01:36:02;;;;;;;5.78;2.80;;;;;;;5.49;97.70;99450.78;6079885;28;20029;-72
2022/04/05 01:38:58;;;;;;;6.00;2.50;;;;;;;5.44;98.24;99450.41;6080560;28;20037;-72
2022/04/05 01:41:57;;;;;;;4.97;2.50;;;;;;;5.47;97.44;99458.00;6079997;28;20276;-70
2022/04/05 01:44:53;;;;;;;4.07;2.10;;;;;;;5.42;97.92;99452.34;6076706;28;20832;-71
2022/04/05 01:47:48;;;;;;;3.70;1.50;;;;;;;5.38;97.41;99446.56;6060998;28;20041;-72
2022/04/05 01:50:43;;;;;;;3.77;1.60;;;;;;;5.36;96.91;99460.81;6051723;28;20038;-70
2022/04/05 01:53:39;;;;;;;5.43;1.20;;;;;;;5.37;96.68;99465.09;6052269;28;20033;-73
2022/04/05 01:56:43;;;;;;;2.53;1.23;;;;;;;5.35;96.27;99462.59;6051181;28;20038;-72
2022/04/05 01:59:40;;;;;;;4.18;1.70;;;;;;;5.33;96.13;99461.09;6051729;28;20470;-71
2022/04/05 02:02:35;;;;;;;3.13;1.40;;;;;;;5.35;96.36;99467.06;6051779;28;20041;-71
2022/04/05 02:05:30;;;;;;;3.03;1.53;;;;;;;5.30;95.71;99469.25;6052535;28;20523;-70
2022/04/05 02:08:26;;;;;;;4.03;1.33;;;;;;;5.32;95.48;99472.59;6052052;28;20101;-71
2022/04/05 02:11:22;;;;;;;2.67;1.20;;;;;;;5.31;95.73;99468.31;6051042;28;20285;-69
2022/04/05 02:14:18;;;;;;;3.78;1.10;;;;;;;5.27;95.49;99474.84;6052263;28;20037;-70
2022/04/05 02:17:13;;;;;;;2.63;1.10;;;;;;;5.24;95.83;99469.84;6051707;28;20096;-71
2022/04/05 02:20:09;;;;;;;2.40;1.20;;;;;;;5.26;96.33;99478.41;6051202;28;20501;-72
2022/04/05 02:23:04;;;;;;;1.92;0.90;;;;;;;5.25;95.54;99476.75;6054365;28;20030;-71
2022/04/05 02:25:59;;;;;;;3.77;1.10;;;;;;;5.24;96.00;99475.13;6051707;28;20034;-72
2022/04/05 02:28:55;;;;;;;2.70;1.00;;;;;;;5.25;95.92;99471.50;6051551;28;20069;-70
2022/04/05 02:31:50;;;;;;;2.50;1.17;;;;;;;5.21;95.57;99472.78;6051528;28;20045;-72
2022/04/05 02:34:45;;;;;;;2.23;1.03;;;;;;;5.18;95.87;99480.94;6051393;28;20091;-72
2022/04/05 02:37:40;;;;;;;2.30;1.30;;;;;;;5.19;95.73;99480.78;6052126;28;20381;-70
2022/04/05 02:40:36;;;;;;;2.97;1.23;;;;;;;5.16;95.94;99482.88;6050329;28;20038;-72
2022/04/05 02:43:33;;;;;;;2.90;1.20;;;;;;;5.21;95.64;99488.53;6050824;28;20437;-71
2022/04/05 02:46:28;;;;;;;6.10;1.73;;;;;;;5.19;95.83;99499.16;6051819;28;20069;-72
2022/04/05 02:49:23;;;;;;;4.70;1.50;;;;;;;5.19;95.67;99485.22;6051115;28;20128;-73
2022/04/05 02:52:18;;;;;;;2.43;1.13;;;;;;;5.20;96.08;99489.50;6051176;28;20030;-72
2022/04/05 02:55:15;;;;;;;2.90;0.93;;;;;;;5.21;95.88;99496.41;6047386;28;20046;-72
2022/04/05 02:58:10;;;;;;;2.95;1.30;;;;;;;5.22;95.24;99498.88;6050261;28;20030;-74
2022/04/05 03:01:06;;;;;;;4.88;1.58;;;;;;;5.25;94.99;99498.59;6050603;28;21168;-70
2022/04/05 03:04:01;;;;;;;5.93;1.52;;;;;;;5.26;95.52;99505.53;6051095;28;20472;-70
2022/04/05 03:06:56;;;;;;;3.00;1.43;;;;;;;5.27;95.11;99507.16;6051479;28;20508;-70
2022/04/05 03:09:51;;;;;;;4.23;1.73;;;;;;;5.29;95.92;99510.50;6050871;28;20273;-73
2022/04/05 03:12:47;;;;;;;5.67;1.93;;;;;;;5.34;95.09;99520.59;6049254;28;20515;-69
2022/04/05 03:15:42;;;;;;;4.33;1.83;;;;;;;5.33;95.38;99518.91;6051167;28;20271;-71
2022/04/05 03:18:38;;;;;;;7.70;2.72;;;;;;;5.34;95.82;99518.78;6050365;28;20285;-71
2022/04/05 03:21:34;;;;;;;5.28;1.73;;;;;;;5.34;94.97;99510.06;6049349;28;20072;-72
2022/04/05 03:24:29;;;;;;;7.77;2.20;;;;;;;5.35;94.81;99509.13;6050748;28;20470;-72
2022/04/05 03:27:24;;;;;;;6.77;2.17;;;;;;;5.34;94.74;99518.78;6050668;28;20034;-72
2022/04/05 03:30:21;;;;;;;6.67;2.57;;;;;;;5.34;95.27;99520.59;6049172;28;20445;-70
2022/04/05 03:33:17;;;;;;;6.82;2.05;;;;;;;5.37;95.05;99528.19;6050176;28;20564;-71
2022/04/05 03:36:12;;;;;;;4.23;1.90;;;;;;;5.33;94.83;99521.53;6048635;28;20042;-74
2022/04/05 03:39:07;;;;;;;11.00;2.60;;;;;;;5.32;95.34;99530.41;6048342;28;20029;-72
2022/04/05 03:42:03;;;;;;;4.27;2.00;;;;;;;5.29;95.39;99541.22;6048927;28;20037;-70
2022/04/05 03:44:59;;;;;;;5.13;1.92;;;;;;;5.30;95.32;99532.34;6050273;28;20030;-71
2022/04/05 03:47:55;;;;;;;7.50;2.30;;;;;;;5.29;95.43;99547.31;6049954;28;20037;-74
2022/04/05 03:50:50;;;;;;;9.77;2.63;;;;;;;5.25;95.68;99547.69;6049761;28;20045;-72
2022/04/05 03:53:45;;;;;;;6.37;2.33;;;;;;;5.25;95.57;99563.47;6050392;28;20029;-75
2022/04/05 03:56:41;;;;;;;9.07;2.90;;;;;;;5.14;95.99;99559.19;6036161;28;20068;-74
2022/04/05 03:59:36;;;;;;;5.97;2.30;;;;;;;5.04;96.85;99552.28;6052824;28;20035;-72
2022/04/05 04:02:34;;;;;;;6.23;1.73;;;;;;;5.00;96.60;99566.69;6052820;28;20579;-71
2022/04/05 04:05:29;;;;;;;6.50;2.10;;;;;;;4.98;96.82;99563.34;6050203;28;20044;-73
2022/04/05 04:08:24;;;;;;;8.33;1.70;;;;;;;4.99;96.59;99567.66;6049679;28;20034;-72
2022/04/05 04:11:19;;;;;;;8.30;2.10;;;;;;;5.00;96.46;99571.94;6049385;28;20393;-71
2022/04/05 04:14:15;;;;;;;6.77;1.50;;;;;;;4.96;96.83;99565.31;6049747;28;20041;-73
2022/04/05 04:17:10;;;;;;;7.38;1.95;;;;;;;4.95;97.06;99571.50;6049666;28;20034;-70
2022/04/05 04:20:06;;;;;;;9.40;1.70;;;;;;;4.89;96.44;99572.09;6049275;28;20059;-71
2022/04/05 04:23:01;;;;;;;7.00;1.67;;;;;;;4.89;96.82;99572.91;6049650;28;20045;-71
2022/04/05 04:25:57;;;;;;;5.70;1.70;;;;;;;4.90;96.82;99577.19;6050132;28;20473;-69
2022/04/05 04:28:55;;;;;;;7.17;2.17;;;;;;;4.92;96.81;99584.94;6049724;28;20444;-72
2022/04/05 04:31:51;;;;;;;7.25;2.00;;;;;;;4.91;97.33;99588.53;6048654;28;20387;-73
2022/04/05 04:34:46;;;;;;;9.57;2.47;;;;;;;4.93;96.94;99594.47;6049792;28;20080;-71
2022/04/05 04:37:42;;;;;;;9.43;2.35;;;;;;;4.96;97.64;99591.56;6049470;28;20032;-73
2022/04/05 04:40:37;;;;;;;7.70;2.58;;;;;;;4.95;96.87;99600.41;6049076;28;20026;-74
2022/04/05 04:43:32;;;;;;;13.20;2.30;;;;;;;4.95;97.60;99598.59;6049664;28;20033;-70
2022/04/05 04:46:28;;;;;;;10.73;2.27;;;;;;;4.92;97.70;99598.88;6047814;28;20703;-71
2022/04/05 04:49:23;;;;;;;8.60;2.07;;;;;;;4.88;97.24;99601.94;6049669;28;20044;-73
2022/04/05 04:52:18;;;;;;;8.80;2.13;;;;;;;4.87;97.00;99608.97;6048721;28;20045;-69
2022/04/05 04:55:14;;;;;;;4.25;1.65;;;;;;;4.87;97.68;99608.97;6049238;28;20034;-73
2022/04/05 04:58:09;;;;;;;8.57;1.57;;;;;;;4.86;97.04;99611.75;6049385;28;20048;-72
2022/04/05 05:01:05;;;;;;;9.10;1.80;;;;;;;4.85;96.64;99616.16;6048279;28;20061;-73
2022/04/05 05:04:00;;;;;;;12.88;1.88;;;;;;;4.84;96.26;99611.88;6048995;28;20329;-69
2022/04/05 05:06:55;;;;;;;5.63;1.37;;;;;;;4.87;95.98;99630.00;6049142;28;20060;-72
2022/04/05 05:09:51;;;;;;;6.27;1.50;;;;;;;4.84;94.85;99632.06;6049439;28;20144;-72
2022/04/05 05:12:46;;;;;;;7.43;1.63;;;;;;;4.82;94.58;99629.56;6048706;28;20766;-71
2022/04/05 05:15:42;;;;;;;10.90;1.55;;;;;;;4.88;94.32;99646.59;6049066;28;20030;-71
2022/04/05 05:18:37;;;;;;;7.90;1.83;;;;;;;4.86;93.37;99640.63;6049678;28;20030;-70
2022/04/05 05:21:33;;;;;;;7.25;1.75;;;;;;;4.89;93.14;99646.47;6053926;28;20045;-73
2022/04/05 05:24:28;;;;;;;4.00;1.37;;;;;;;4.91;93.28;99659.44;6053440;28;20083;-69
2022/04/05 05:27:23;;;;;;;11.33;2.13;;;;;;;4.88;93.33;99664.97;6053548;28;20040;-70
2022/04/05 05:30:19;;;;;;;12.67;2.07;;;;;;;4.88;92.95;99678.94;6052708;28;20518;-69
2022/04/05 05:33:14;;;;;;;8.47;2.30;;;;;;;4.89;93.06;99677.16;6053316;28;20044;-69
2022/04/05 05:36:09;;;;;;;9.90;1.75;;;;;;;4.86;92.97;99680.88;6052395;28;20069;-69
2022/04/05 05:39:05;;;;;;;5.30;1.60;;;;;;;4.87;93.19;99681.69;6053295;28;20038;-69
2022/04/05 05:42:00;;;;;;;8.20;1.47;;;;;;;4.90;92.94;99691.91;6052541;28;20034;-68
2022/04/05 05:44:55;;;;;;;5.38;1.42;;;;;;;4.89;94.37;99695.53;6052985;28;20042;-70
2022/04/05 05:47:51;;;;;;;6.43;1.57;;;;;;;4.88;93.92;99699.09;6053139;28;20041;-70
2022/04/05 05:50:46;;;;;;;5.97;1.33;;;;;;;4.93;93.94;99707.41;6052329;28;20022;-70
2022/04/05 05:53:42;;;;;;;6.50;1.52;;;;;;;4.94;94.02;99709.09;6052740;28;20281;-69
2022/04/05 05:56:37;;;;;;;12.93;1.50;;;;;;;4.94;94.06;99714.34;6039665;28;20473;-70
2022/04/05 05:59:33;;;;;;;9.30;1.67;;;;;;;4.99;94.59;99727.88;6052691;28;20129;-71
2022/04/05 06:02:28;;;;;;;4.50;1.58;;;;;;;4.96;93.98;99725.53;6052065;28;20025;-69
2022/04/05 06:05:26;;;;;;;9.10;1.63;;;;;;;4.99;93.46;99733.16;6052608;28;20053;-68
2022/04/05 06:08:22;;;;;;;8.25;1.55;;;;;;;4.98;93.15;99737.56;6052645;28;20037;-68
2022/04/05 06:11:17;;;;;;;9.00;1.80;;;;;;;4.98;92.59;99727.06;6051867;28;20030;-69
2022/04/05 06:14:12;;;;;;;6.53;1.33;;;;;;;5.02;92.75;99738.13;6052618;28;20036;-70
2022/04/05 06:17:07;;;;;;;9.20;2.20;;;;;;;5.03;92.66;99739.81;6052916;28;20034;-69
2022/04/05 06:20:04;;;;;;;6.47;1.50;;;;;;;5.03;92.24;99755.56;6051468;28;20087;-72
2022/04/05 06:23:02;;;;;;;10.38;1.90;;;;;;;5.05;92.13;99756.25;6052355;28;20030;-70
2022/04/05 06:25:57;;;;;;;9.48;1.73;;;;;;;5.08;92.07;99761.25;6051791;28;20030;-70
2022/04/05 06:28:55;;;;;;;11.10;2.07;;;;;;;5.12;91.38;99763.47;6052356;28;20038;-72
2022/04/05 06:31:51;;;;;;;11.02;1.70;;;;;;;5.21;91.69;99769.72;6051242;28;20275;-72
2022/04/05 06:34:46;;;;;;;7.78;1.83;;;;;;;5.24;92.32;99775.53;6051929;28;20034;-69
2022/04/05 06:37:44;;;;;;;7.70;1.63;;;;;;;5.26;91.13;99772.75;6051979;28;20038;-69
2022/04/05 06:40:43;;;;;;;10.07;2.15;;;;;;;5.22;91.46;99761.69;6050745;28;20034;-70
2022/04/05 06:43:38;;;;;;;9.98;1.60;;;;;;;5.26;90.71;99770.13;6052039;28;20037;-68
2022/04/05 06:46:34;;;;;;;7.13;1.80;;;;;;;5.20;90.36;99770.66;6051773;28;20025;-70
2022/04/05 06:49:29;;;;;;;6.85;1.20;;;;;;;5.21;89.78;99772.34;6051566;28;20069;-71
2022/04/05 06:52:24;;;;;;;11.57;1.60;;;;;;;5.14;89.85;99779.91;6051232;28;20507;-71
2022/04/05 06:55:20;;;;;;;11.53;1.50;;;;;;;5.15;89.19;99781.59;6050197;28;20030;-70
2022/04/05 06:58:15;;;;;;;6.72;1.02;;;;;;;5.14;87.92;99773.81;6051144;28;20292;-72
2022/04/05 07:01:11;;;;;;;5.67;1.37;;;;;;;5.09;87.86;99773.41;6050290;28;20518;-71
2022/04/05 07:04:06;;;;;;;6.43;1.50;;;;;;;5.15;88.36;99783.38;6051165;28;20539;-71
2022/04/05 07:07:01;;;;;;;4.10;0.90;;;;;;;5.23;88.40;99778.28;6051483;28;20037;-72
2022/04/05 07:09:56;;;;;;;5.30;1.10;;;;;;;5.24;88.11;99779.94;6051056;28;20276;-72
2022/04/05 07:12:52;;;;;;;7.03;1.30;;;;;;;5.24;87.62;99780.78;6050667;28;20276;-74
2022/04/05 07:15:47;;;;;;;9.37;1.10;;;;;;;5.33;87.30;99774.69;6051432;28;20072;-72
2022/04/05 07:18:42;;;;;;;7.13;1.33;;;;;;;5.46;86.40;99771.84;6050908;28;20501;-70
2022/04/05 07:21:38;;;;;;;5.27;1.10;;;;;;;5.58;86.68;99768.09;6050367;28;20338;-71
2022/04/05 07:24:33;;;;;;;6.57;1.20;;;;;;;5.64;85.94;99767.53;6050496;28;20350;-69
2022/04/05 07:27:29;;;;;;;8.97;1.40;;;;;;;5.72;86.25;99778.19;6051053;28;20504;-72
2022/04/05 07:30:24;;;;;;;8.25;1.33;;;;;;;5.77;85.52;99772.53;6050002;28;20382;-72
2022/04/05 07:33:20;;;;;;;9.45;1.45;;;;;;;5.86;84.87;99775.19;6050548;28;20037;-70
2022/04/05 07:36:15;;;;;;;10.37;1.10;;;;;;;5.96;85.44;99776.00;6050800;28;20034;-71
2022/04/05 07:39:10;;;;;;;7.33;1.30;;;;;;;6.01;84.95;99774.78;6050525;28;20026;-69
2022/04/05 07:42:06;;;;;;;6.27;1.10;;;;;;;6.05;83.36;99769.06;6049036;28;20037;-72
2022/04/05 07:45:01;;;;;;;4.25;1.00;;;;;;;6.18;83.37;99772.25;6050155;28;20116;-72
2022/04/05 07:47:56;;;;;;;7.43;1.37;;;;;;;6.32;83.36;99776.22;6050671;28;20483;-72
2022/04/05 07:50:51;;;;;;;11.60;1.57;;;;;;;6.42;82.62;99779.66;6049880;28;20036;-71
2022/04/05 07:53:47;;;;;;;4.87;1.50;;;;;;;6.38;81.82;99780.94;6050310;28;20034;-70
2022/04/05 07:56:42;;;;;;;8.70;1.93;;;;;;;6.51;83.02;99776.19;6050452;28;20109;-68
2022/04/05 07:59:37;;;;;;;5.60;1.27;;;;;;;6.53;83.54;99774.22;6050016;28;20048;-70
2022/04/05 08:02:33;;;;;;;8.17;1.53;;;;;;;6.68;83.31;99780.72;6049053;28;20297;-71
2022/04/05 08:05:28;;;;;;;7.00;1.40;;;;;;;6.77;82.22;99771.91;6050236;28;20042;-71
2022/04/05 08:08:23;;;;;;;10.23;1.70;;;;;;;7.00;82.07;99782.94;6049988;28;20057;-69
2022/04/05 08:11:19;;;;;;;6.87;1.33;;;;;;;6.97;82.95;99786.69;6049535;28;20275;-69
2022/04/05 08:14:14;;;;;;;6.90;1.10;;;;;;;7.23;81.91;99786.81;6049861;28;20037;-71
2022/04/05 08:17:10;;;;;;;8.00;1.40;;;;;;;7.72;81.09;99782.88;6050006;28;20496;-70
2022/04/05 08:20:06;;;;;;;7.38;1.30;;;;;;;7.70;77.99;99776.91;6048884;28;20034;-71
2022/04/05 08:23:03;;;;;;;11.50;1.70;;;;;;;7.55;79.40;99778.44;6049719;28;20025;-69
2022/04/05 08:25:59;;;;;;;11.05;1.95;;;;;;;7.69;77.92;99784.00;6049956;28;20041;-70
2022/04/05 08:28:57;;;;;;;8.90;2.00;;;;;;;7.71;77.42;99786.50;6049742;28;20087;-72
2022/04/05 08:31:52;;;;;;;7.47;1.52;;;;;;;7.45;77.39;99785.56;6049222;28;20092;-69
2022/04/05 08:34:48;;;;;;;7.85;1.48;;;;;;;7.40;77.92;99791.28;6049460;28;20042;-72
2022/04/05 08:37:44;;;;;;;8.25;1.70;;;;;;;7.30;77.14;99800.25;6051507;28;20044;-71
2022/04/05 08:40:39;;;;;;;6.85;1.70;;;;;;;7.29;78.39;99796.78;6044050;28;20038;-72
2022/04/05 08:43:36;;;;;;;7.00;1.58;;;;;;;7.35;77.54;99796.19;6046150;28;20393;-71
2022/04/05 08:46:34;;;;;;;7.43;1.52;;;;;;;7.26;77.75;99804.13;6046682;28;20053;-71
2022/04/05 08:49:30;;;;;;;6.85;1.75;;;;;;;7.12;77.97;99800.22;6039604;28;20422;-72
2022/04/05 08:52:26;;;;;;;10.13;1.40;;;;;;;7.08;78.51;99801.47;6045567;28;20030;-70
2022/04/05 08:55:22;;;;;;;11.57;1.73;;;;;;;7.18;78.90;99799.59;6051242;28;20052;-73
2022/04/05 08:58:18;;;;;;;6.95;1.48;;;;;;;7.04;77.54;99802.72;6050923;28;20393;-70
2022/04/05 09:01:13;;;;;;;5.28;1.33;;;;;;;7.07;78.49;99798.00;6049340;28;20132;-69
2022/04/05 09:04:10;;;;;;;5.03;1.60;;;;;;;7.16;78.56;99805.03;6050789;28;20534;-73
2022/04/05 09:07:24;;;;;;;8.05;1.30;;;;;;;7.02;78.16;99797.63;6050855;28;20060;-70
2022/04/05 09:10:20;;;;;;;10.35;2.08;;;;;;;7.09;78.19;99803.94;6049535;28;20409;-69
2022/04/05 09:13:21;;;;;;;9.73;1.97;;;;;;;7.15;77.46;99803.38;6050926;28;20037;-71
2022/04/05 09:16:28;;;;;;;4.68;1.00;;;;;;;7.34;77.45;99806.91;6050462;28;20280;-71
2022/04/05 09:19:23;;;;;;;7.75;1.25;;;;;;;7.59;77.46;99796.44;6065805;28;20393;-68
2022/04/05 09:22:32;;;;;;;6.23;1.53;;;;;;;7.51;76.35;99793.72;6049137;28;20033;-71
2022/04/05 09:25:28;;;;;;;6.03;1.10;;;;;;;7.66;76.87;99794.06;6050846;28;20045;-71
2022/04/05 09:28:31;;;;;;;11.70;1.80;;;;;;;7.76;76.01;99785.06;6050554;28;20038;-70
2022/04/05 09:31:27;;;;;;;9.68;1.30;;;;;;;7.64;76.18;99793.34;6049786;28;20036;-70
2022/04/05 09:34:22;;;;;;;7.83;1.60;;;;;;;7.58;75.79;99793.97;6050791;28;20038;-71
2022/04/05 09:37:28;;;;;;;4.30;1.30;;;;;;;7.59;75.91;99799.09;6050427;28;20117;-71
2022/04/05 09:40:35;;;;;;;7.30;1.38;;;;;;;7.58;76.04;99792.13;6048729;28;20042;-70
2022/04/05 09:43:31;;;;;;;9.48;1.65;;;;;;;7.49;75.54;99792.22;6047558;28;20144;-69
2022/04/05 09:46:28;;;;;;;8.43;1.77;;;;;;;7.40;75.58;99798.38;6049917;28;20045;-71
2022/04/05 09:49:31;;;;;;;5.15;1.25;;;;;;;7.40;76.44;99798.38;6050307;28;20306;-69
2022/04/05 09:52:30;;;;;;;5.95;1.70;;;;;;;7.50;76.61;99788.63;6049621;28;20034;-69
2022/04/05 09:55:25;;;;;;;8.10;2.10;;;;;;;7.40;77.03;99791.28;6051101;28;20109;-70
2022/04/05 09:58:21;;;;;;;13.65;2.05;;;;;;;7.58;77.68;99792.13;6052543;28;20408;-70
2022/04/05 10:01:18;;;;;;;4.82;2.00;;;;;;;7.65;78.71;99787.09;6051794;28;20076;-70
2022/04/05 10:04:15;;;;;;;8.90;2.17;;;;;;;7.58;79.08;99792.13;6052106;28;20136;-71
2022/04/05 10:07:11;;;;;;;7.43;2.22;;;;;;;7.33;80.87;99792.03;6052580;28;20044;-71
2022/04/05 10:10:07;;;;;;;9.17;2.23;;;;;;;7.22;81.06;99789.59;6050950;28;20393;-73
2022/04/05 10:13:02;;;;;;;9.68;2.35;;;;;;;7.14;82.97;99785.91;6052561;28;20040;-74
2022/04/05 10:16:00;;;;;;;7.37;3.10;;;;;;;7.24;84.02;99801.66;6056504;28;20038;-70
2022/04/05 10:18:59;;;;;;;12.45;2.80;;;;;;;7.11;84.91;99788.84;6052465;28;20041;-71
2022/04/05 10:21:55;;;;;;;9.30;2.55;;;;;;;7.47;85.27;99781.81;6051541;28;20465;-71
2022/04/05 10:24:52;;;;;;;6.78;2.10;;;;;;;7.76;84.66;99773.69;6051166;28;20045;-70
2022/04/05 10:27:48;;;;;;;12.38;3.33;;;;;;;7.93;82.35;99779.94;6052129;28;20044;-72
2022/04/05 10:30:48;;;;;;;10.25;2.08;;;;;;;8.01;82.09;99777.38;6051318;28;20501;-72
2022/04/05 10:34:03;;;;;;;10.77;2.40;;;;;;;7.99;82.05;99776.69;6050958;28;20485;-69
2022/04/05 10:37:09;;;;;;;6.75;1.80;;;;;;;8.23;80.60;99767.16;6050622;28;20029;-69
2022/04/05 10:40:05;;;;;;;10.75;2.75;;;;;;;8.37;81.12;99769.25;6051073;28;20034;-70
2022/04/05 10:43:14;;;;;;;9.23;1.80;;;;;;;8.40;79.55;99764.66;6052073;28;20045;-71
2022/04/05 10:46:10;;;;;;;7.60;2.10;;;;;;;7.89;79.62;99763.56;6051630;28;20045;-69
2022/04/05 10:49:07;;;;;;;4.85;1.52;;;;;;;7.88;81.75;99771.66;6051362;28;20065;-72
2022/04/05 10:52:12;;;;;;;12.02;1.95;;;;;;;7.78;82.12;99764.63;6051115;28;20034;-68
2022/04/05 10:55:09;;;;;;;7.88;1.83;;;;;;;7.76;83.66;99768.41;6050870;28;20109;-68
2022/04/05 10:58:09;;;;;;;5.35;1.50;;;;;;;7.67;82.87;99764.03;6051046;28;20064;-69
2022/04/05 11:01:18;;;;;;;6.57;1.55;;;;;;;7.65;83.90;99768.63;6050035;28;20049;-70
2022/04/05 11:04:17;;;;;;;6.20;1.80;;;;;;;7.60;85.65;99774.38;6050904;28;20042;-68
2022/04/05 11:07:12;;;;;;;10.43;2.15;;;;;;;7.43;85.73;99766.44;6050715;28;20033;-70
2022/04/05 11:10:07;;;;;;;5.85;1.60;;;;;;;7.40;86.50;99764.09;6050574;28;20041;-68
2022/04/05 11:13:08;;;;;;;5.20;1.70;;;;;;;7.52;87.20;99760.28;6050198;28;20034;-69
2022/04/05 11:16:04;;;;;;;8.88;2.28;;;;;;;7.49;87.28;99760.56;6050174;28;20563;-68
2022/04/05 11:18:59;;;;;;;7.82;1.73;;;;;;;7.42;87.83;99759.50;6049472;28;20041;-68
2022/04/05 11:21:57;;;;;;;9.20;2.40;;;;;;;7.45;88.41;99756.56;6048856;28;20029;-71
2022/04/05 11:25:10;;;;;;;7.65;2.53;;;;;;;7.39;88.57;99765.09;6050958;28;20308;-71
2022/04/05 11:28:15;;;;;;;8.15;2.10;;;;;;;7.18;88.64;99767.97;6050854;28;20042;-70
2022/04/05 11:31:35;;;;;;;10.60;2.30;;;;;;;7.16;89.38;99765.50;6050457;28;20109;-70
2022/04/05 11:34:38;;;;;;;5.43;1.92;;;;;;;7.02;89.95;99768.63;6050763;28;20714;-72
2022/04/05 11:37:34;;;;;;;5.20;1.92;;;;;;;6.96;90.98;99768.38;6050956;28;20053;-71
2022/04/05 11:40:30;;;;;;;7.43;2.88;;;;;;;6.86;91.78;99773.69;6049641;28;20038;-72
2022/04/05 11:43:30;;;;;;;13.38;2.40;;;;;;;6.84;92.71;99778.28;6050444;28;20057;-70
2022/04/05 11:46:46;;;;;;;7.80;2.65;;;;;;;6.80;93.39;99769.00;6050604;28;20040;-70
2022/04/05 11:49:42;;;;;;;7.95;2.63;;;;;;;6.86;92.88;99762.31;6051573;28;20057;-72
2022/04/05 11:52:37;;;;;;;10.75;2.90;;;;;;;7.05;93.92;99765.69;6049462;28;20037;-72
2022/04/05 11:58:52;;;;;;;7.68;2.60;;;;;;;7.43;94.47;99761.16;6050418;28;20257;-71
2022/04/05 12:01:49;;;;;;;;;;;;;;;7.43;94.40;99767.25;6049817;28;20488;-72
2022/04/05 12:04:45;;;;;;;8.07;2.33;;;;;;;7.41;93.63;99774.50;6050196;28;20002;-70
2022/04/05 12:07:40;;;;;;;12.10;2.80;;;;;;;7.45;94.45;99754.75;6048634;28;20041;-70
2022/04/05 12:10:35;;;;;;;11.43;3.13;;;;;;;7.56;94.43;99758.97;6064258;28;20485;-70
2022/04/05 12:13:34;;;;;;;12.30;2.90;;;;;;;7.53;94.07;99761.91;6049993;28;20500;-70
2022/04/05 12:16:44;;;;;;;6.32;2.83;;;;;;;7.55;93.76;99744.97;6049778;28;20112;-72
2022/04/05 12:19:40;;;;;;;9.48;3.03;;;;;;;7.57;93.47;99739.53;6049991;28;20394;-71
2022/04/05 12:22:37;;;;;;;7.50;3.28;;;;;;;7.64;93.27;99740.59;6047761;28;20087;-71
2022/04/05 12:25:32;;;;;;;9.40;3.55;;;;;;;7.59;93.09;99734.94;6049617;28;20041;-72
2022/04/05 12:28:27;;;;;;;6.67;2.70;;;;;;;7.51;93.04;99732.22;6049306;28;20056;-70
2022/04/05 12:31:28;;;;;;;6.67;2.83;;;;;;;7.58;92.52;99744.66;6049108;28;20041;-70
2022/04/05 12:34:23;;;;;;;6.90;2.90;;;;;;;7.49;93.34;99742.09;6048762;28;20036;-73
2022/04/05 12:37:20;;;;;;;9.73;3.07;;;;;;;7.35;92.64;99748.72;6049121;28;20481;-70
2022/04/05 12:40:25;;;;;;;9.68;3.83;;;;;;;7.30;93.63;99750.16;6047786;28;20771;-73
2022/04/05 12:43:20;;;;;;;11.02;3.20;;;;;;;7.25;93.29;99749.78;6048925;28;20469;-72
2022/04/05 12:46:16;;;;;;;7.82;2.72;;;;;;;7.23;93.63;99751.72;6049783;28;20030;-72
2022/04/05 12:49:17;;;;;;;8.10;2.90;;;;;;;7.24;94.09;99756.00;6049632;28;20029;-70
2022/04/05 12:52:24;;;;;;;9.52;4.13;;;;;;;7.16;94.43;99748.84;6048861;28;20676;-68
2022/04/05 12:55:19;;;;;;;8.38;3.35;;;;;;;7.08;95.52;99740.84;6045121;28;20022;-70
2022/04/05 12:58:33;;;;;;;9.40;3.03;;;;;;;7.08;95.54;99740.84;6048581;28;20037;-70
2022/04/05 13:01:29;;;;;;;6.68;3.08;;;;;;;7.24;95.78;99734.91;6047269;28;20022;-73
2022/04/05 13:04:24;;;;;;;6.45;3.03;;;;;;;7.44;96.60;99723.25;6048745;28;20046;-74
2022/04/05 13:07:19;;;;;;;11.50;3.47;;;;;;;7.53;96.50;99722.34;6049434;28;20499;-71
2022/04/05 13:10:15;;;;;;;5.78;2.38;;;;;;;7.69;95.98;99718.03;6048459;28;20105;-74
2022/04/05 13:13:38;;;;;;;8.87;3.00;;;;;;;8.09;96.02;99708.78;6049271;28;20038;-73
2022/04/05 13:16:35;;;;;;;11.00;4.10;;;;;;;8.65;96.22;99705.66;6048191;28;20273;-73
2022/04/05 13:19:30;;;;;;;4.97;2.30;;;;;;;8.50;95.31;99704.59;6049138;28;20030;-72
2022/04/05 13:22:25;;;;;;;19.60;8.60;;;;;;;8.44;94.55;99695.50;6048530;28;20493;-71
2022/04/05 13:25:34;;;;;;;7.10;3.23;;;;;;;8.49;94.15;99695.84;6049203;28;20038;-73
2022/04/05 13:28:32;;;;;;;6.05;3.00;;;;;;;8.43;93.67;99696.47;6047423;28;20042;-72
2022/04/05 13:31:31;;;;;;;6.25;2.80;;;;;;;8.40;93.40;99691.50;6048077;28;20038;-71
2022/04/05 13:34:34;;;;;;;7.28;2.70;;;;;;;8.27;93.38;99699.84;6049207;28;20125;-73
2022/04/05 13:37:29;;;;;;;4.22;2.45;;;;;;;8.13;93.81;99692.47;6047963;28;20045;-73
2022/04/05 13:40:26;;;;;;;4.70;2.70;;;;;;;8.32;93.51;99686.16;6047668;28;20026;-70
2022/04/05 13:43:22;;;;;;;5.75;2.25;;;;;;;8.35;93.25;99691.13;6050942;28;20029;-72
2022/04/05 13:46:17;;;;;;;4.07;2.00;;;;;;;8.41;92.70;99679.94;6050466;28;20037;-72
2022/04/05 13:49:19;;;;;;;5.18;2.45;;;;;;;8.47;92.69;99687.25;6049723;28;20038;-73
2022/04/05 13:52:14;;;;;;;4.85;2.22;;;;;;;8.30;92.21;99682.88;6049125;28;20037;-70
2022/04/05 13:55:10;;;;;;;3.90;1.87;;;;;;;8.22;92.57;99685.44;6050744;28;20505;-72
2022/04/05 13:58:05;;;;;;;6.85;2.42;;;;;;;8.46;93.66;99687.41;6052449;28;20624;-73
2022/04/05 14:01:00;;;;;;;4.85;2.15;;;;;;;8.53;93.01;99678.69;6052235;28;20025;-72
2022/04/05 14:03:56;;;;;;;6.13;2.13;;;;;;;8.58;93.14;99681.69;6052793;28;20034;-70
2022/04/05 14:06:51;;;;;;;4.67;2.27;;;;;;;8.51;93.16;99664.81;6052695;28;20511;-70